LELC/MJV METAR and TAF weather

Enter ICAO airport designator
Station Type Date Time Source
LELC METAR 2018/12/15 23:00 UTC NOAA

LELC 152300Z AUTO 28006KT 9000 NCD 12/08 Q1023


Station Type Date Time Source
LELC Decoded METAR 2018/12/15 23:00 UTC NOAA

Murcia / San Javier, Spain (LELC) 37-47N 000-48W 3M
Dec 15, 2018 - 06:00 PM EST / 2018.12.15 2300 UTC
Wind: from the W (280 degrees) at 7 MPH (6 KT):0
Visibility: 5 mile(s):0
Temperature: 53 F (12 C)
Dew Point: 46 F (8 C)
Relative Humidity: 76%
Pressure (altimeter): 30.21 in. Hg (1023 hPa)
ob: LELC 152300Z AUTO 28006KT 9000 NCD 12/08 Q1023
cycle: 23

Station Type Date Time Source
LELC TAF 2018/12/15 18:27 UTC NOAA

TAF LELC 151700Z 1518/1618 27006KT CAVOK TX20/1615Z TN09/1606Z PROB30
TEMPO 1612/1616 21010KT


Example: see airport list